createdAt,value
2022-08-10T00:02:15.133Z,26.43
2022-08-10T00:04:42.838Z,26.46
2022-08-10T00:07:10.556Z,26.45
2022-08-10T00:09:50.766Z,26.40
2022-08-10T00:12:19.634Z,26.43
2022-08-10T00:14:48.749Z,26.41
2022-08-10T00:17:16.477Z,26.39
2022-08-10T00:20:04.104Z,26.38
2022-08-10T00:22:32.103Z,26.36
2022-08-10T00:24:59.921Z,26.36
2022-08-10T00:27:52.935Z,26.36
2022-08-10T00:30:16.969Z,26.36
2022-08-10T00:32:44.708Z,26.32
2022-08-10T00:35:12.395Z,26.30
2022-08-10T00:37:40.134Z,26.30
2022-08-10T00:40:09.085Z,26.22
2022-08-10T00:42:36.858Z,26.27
2022-08-10T00:45:04.884Z,26.27
2022-08-10T00:47:37.356Z,26.26
2022-08-10T00:50:06.153Z,26.23
2022-08-10T00:52:34.639Z,26.22
2022-08-10T00:55:03.388Z,26.10
2022-08-10T00:57:31.132Z,26.20
2022-08-10T01:00:00.338Z,26.18
2022-08-10T01:02:30.187Z,26.11
2022-08-10T01:05:01.942Z,26.17
2022-08-10T01:07:50.381Z,26.16
2022-08-10T01:10:25.391Z,25.82
2022-08-10T01:12:55.059Z,25.75
2022-08-10T01:15:25.697Z,26.11
2022-08-10T01:17:55.022Z,25.79
2022-08-10T01:20:31.438Z,25.78
2022-08-10T01:23:28.917Z,26.07
2022-08-10T01:26:30.805Z,26.05
2022-08-10T01:29:19.451Z,26.03
2022-08-10T01:31:51.249Z,26.02
2022-08-10T01:34:21.013Z,26.01
2022-08-10T01:36:50.811Z,25.99
2022-08-10T01:39:21.443Z,25.75
2022-08-10T01:41:49.166Z,25.95
2022-08-10T01:44:20.035Z,25.66
2022-08-10T01:46:56.712Z,25.94
2022-08-10T01:49:24.032Z,25.91
2022-08-10T01:51:53.244Z,25.87
2022-08-10T01:54:22.334Z,25.60
2022-08-10T01:56:51.960Z,25.86
2022-08-10T01:59:26.997Z,25.60
2022-08-10T02:01:58.604Z,25.82
2022-08-10T02:04:26.802Z,25.83
2022-08-10T02:06:55.043Z,25.82
2022-08-10T02:09:24.904Z,25.80
2022-08-10T02:12:06.167Z,25.78
2022-08-10T02:14:36.732Z,25.77
2022-08-10T02:17:07.410Z,25.76
2022-08-10T02:19:36.879Z,25.76
2022-08-10T02:22:36.770Z,25.74
2022-08-10T02:24:52.593Z,25.73
2022-08-10T02:27:20.417Z,25.37
2022-08-10T02:29:48.961Z,25.56
2022-08-10T02:32:36.006Z,25.68
2022-08-10T02:35:21.758Z,25.37
2022-08-10T02:37:51.541Z,25.65
2022-08-10T02:45:00.566Z,25.44
2022-08-10T02:45:20.242Z,25.60
2022-08-10T02:46:00.923Z,25.57
2022-08-10T02:48:33.142Z,25.56
2022-08-10T02:51:03.214Z,25.56
2022-08-10T02:53:54.523Z,25.55
2022-08-10T02:56:23.317Z,25.53
2022-08-10T02:58:54.569Z,25.53
2022-08-10T03:01:24.514Z,25.50
2022-08-10T03:03:57.231Z,25.46
2022-08-10T03:06:26.607Z,25.45
2022-08-10T03:08:54.377Z,25.42
2022-08-10T03:12:35.170Z,25.43
2022-08-10T03:14:12.873Z,25.02
2022-08-10T03:16:40.577Z,25.41
2022-08-10T03:20:34.316Z,25.39
2022-08-10T03:21:58.084Z,25.37
2022-08-10T03:24:33.241Z,25.10
2022-08-10T03:27:01.471Z,24.96
2022-08-10T03:29:29.316Z,25.02
2022-08-10T03:31:57.034Z,25.32
2022-08-10T03:34:33.540Z,25.31
2022-08-10T03:37:01.727Z,25.30
2022-08-10T03:39:29.541Z,25.25
2022-08-10T03:41:59.844Z,25.27
2022-08-10T03:44:29.789Z,25.25
2022-08-10T03:46:57.278Z,25.23
2022-08-10T03:49:26.339Z,25.17
2022-08-10T03:51:54.056Z,25.20
2022-08-10T03:54:21.801Z,25.20
2022-08-10T03:56:49.542Z,25.18
2022-08-10T03:59:17.485Z,24.98
2022-08-10T04:02:43.940Z,24.88
2022-08-10T04:04:34.813Z,25.13
2022-08-10T04:07:02.550Z,25.13
2022-08-10T04:09:53.271Z,24.82
2022-08-10T04:12:18.988Z,25.12
2022-08-10T04:14:51.310Z,25.09
2022-08-10T04:18:01.257Z,25.08
2022-08-10T04:20:14.212Z,25.08
2022-08-10T04:22:41.926Z,24.77
2022-08-10T04:25:10.109Z,24.77
2022-08-10T04:27:37.821Z,25.01
2022-08-10T04:30:06.597Z,25.01
2022-08-10T04:32:34.467Z,25.01
2022-08-10T04:35:02.370Z,24.97
2022-08-10T04:37:31.432Z,24.99
2022-08-10T04:39:59.185Z,24.87
2022-08-10T04:42:26.922Z,24.97
2022-08-10T04:44:54.666Z,24.96
2022-08-10T04:47:57.351Z,24.96
2022-08-10T04:50:10.426Z,24.93
2022-08-10T04:52:39.488Z,24.88
2022-08-10T04:55:07.871Z,24.81
2022-08-10T04:57:35.762Z,24.66
2022-08-10T05:00:03.960Z,24.67
2022-08-10T05:02:46.661Z,24.65
2022-08-10T05:05:14.465Z,24.68
2022-08-10T05:07:54.108Z,24.68
2022-08-10T05:10:25.010Z,24.64
2022-08-10T05:12:53.086Z,24.65
2022-08-10T05:15:23.938Z,24.66
2022-08-10T05:18:08.162Z,24.67
2022-08-10T05:20:37.790Z,24.69
2022-08-10T05:23:07.453Z,24.70
2022-08-10T05:25:38.160Z,24.73
2022-08-10T05:28:06.918Z,24.43
2022-08-10T05:30:34.803Z,24.61
2022-08-10T05:33:06.582Z,24.63
2022-08-10T05:35:56.403Z,24.61
2022-08-10T05:38:27.490Z,24.66
2022-08-10T05:40:55.235Z,24.63
2022-08-10T05:43:24.025Z,24.65
2022-08-10T05:46:17.287Z,24.43
2022-08-10T05:48:56.520Z,24.51
2022-08-10T05:51:26.267Z,24.65
2022-08-10T05:54:02.248Z,24.55
2022-08-10T05:56:54.833Z,24.54
2022-08-10T06:00:11.246Z,24.19
2022-08-10T06:02:33.779Z,23.68
2022-08-10T06:04:58.289Z,23.69
2022-08-10T06:07:27.202Z,23.94
2022-08-10T06:09:59.379Z,23.95
2022-08-10T06:12:30.325Z,23.67
2022-08-10T06:15:05.230Z,23.85
2022-08-10T06:17:33.814Z,23.92
2022-08-10T06:20:01.758Z,23.95
2022-08-10T06:22:32.332Z,24.02
2022-08-10T06:27:49.503Z,23.85
2022-08-10T06:30:19.958Z,24.19
2022-08-10T06:32:49.105Z,24.15
2022-08-10T06:35:16.852Z,23.97
2022-08-10T06:37:50.712Z,24.21
2022-08-10T06:40:21.076Z,24.24
2022-08-10T06:42:49.617Z,23.96
2022-08-10T06:45:18.918Z,24.33
2022-08-10T06:47:47.782Z,24.40
2022-08-10T06:50:17.497Z,24.37
2022-08-10T06:53:05.052Z,24.33
2022-08-10T06:55:49.812Z,24.50
2022-08-10T06:58:23.629Z,24.53
2022-08-10T07:00:54.950Z,24.58
2022-08-10T07:03:22.721Z,24.63
2022-08-10T07:05:51.548Z,24.37
2022-08-10T07:08:19.778Z,24.47
2022-08-10T07:10:49.038Z,24.66
2022-08-10T07:14:14.489Z,24.74
2022-08-10T07:16:05.454Z,24.77
2022-08-10T07:18:33.225Z,24.81
2022-08-10T07:21:02.148Z,24.81
2022-08-10T07:23:59.770Z,24.82
2022-08-10T07:26:19.183Z,24.48
2022-08-10T07:28:48.251Z,24.85
2022-08-10T07:31:54.911Z,24.83
2022-08-10T07:34:07.081Z,24.88
2022-08-10T07:36:34.642Z,24.92
2022-08-10T07:39:02.577Z,24.94
2022-08-10T07:41:32.085Z,25.01
2022-08-10T07:43:59.845Z,24.80
2022-08-10T07:46:27.765Z,24.96
2022-08-10T07:48:58.134Z,24.93
2022-08-10T07:51:25.871Z,24.49
2022-08-10T07:53:54.691Z,25.13
2022-08-10T07:56:47.382Z,25.20
2022-08-10T07:59:14.118Z,25.26
2022-08-10T08:01:43.345Z,24.99
2022-08-10T08:04:12.099Z,25.38
2022-08-10T08:06:40.736Z,25.38
2022-08-10T08:09:08.440Z,25.40
2022-08-10T08:11:36.627Z,25.10
2022-08-10T08:14:04.413Z,25.42
2022-08-10T08:16:33.516Z,25.54
2022-08-10T08:24:08.636Z,25.53
2022-08-10T08:24:37.507Z,25.46
2022-08-10T08:27:05.850Z,25.09
2022-08-10T08:29:35.401Z,25.45
2022-08-10T08:32:05.089Z,25.32
2022-08-10T08:34:33.158Z,25.58
2022-08-10T08:37:01.832Z,25.65
2022-08-10T08:39:29.880Z,25.68
2022-08-10T08:42:14.450Z,25.56
2022-08-10T08:44:50.586Z,25.76
2022-08-10T08:48:05.453Z,25.95
2022-08-10T08:50:26.476Z,25.92
2022-08-10T08:52:59.246Z,25.63
2022-08-10T08:56:02.873Z,25.95
2022-08-10T08:58:49.390Z,25.96
2022-08-10T09:01:24.507Z,25.70
2022-08-10T09:04:21.305Z,26.18
2022-08-10T09:08:01.005Z,26.24
2022-08-10T09:10:04.442Z,26.28
2022-08-10T09:12:49.726Z,26.39
2022-08-10T09:15:40.275Z,26.43
2022-08-10T09:18:12.443Z,26.36
2022-08-10T09:20:45.733Z,26.10
2022-08-10T09:23:17.612Z,26.38
2022-08-10T09:25:46.770Z,26.13
2022-08-10T09:28:17.942Z,26.34
2022-08-10T09:31:03.959Z,26.40
2022-08-10T09:36:25.566Z,26.43
2022-08-10T09:36:41.860Z,26.53
2022-08-10T09:40:56.818Z,26.55
2022-08-10T09:42:14.434Z,26.20
2022-08-10T09:44:57.315Z,26.60
2022-08-10T09:48:01.151Z,26.28
2022-08-10T09:50:23.934Z,26.79
2022-08-10T09:52:58.925Z,26.91
2022-08-10T09:56:17.607Z,27.05
2022-08-10T09:58:28.507Z,26.97
2022-08-10T10:00:59.091Z,27.19
2022-08-10T10:03:29.181Z,27.02
2022-08-10T10:06:02.433Z,27.27
2022-08-10T10:08:34.236Z,27.20
2022-08-10T10:11:16.169Z,27.35
2022-08-10T10:14:02.073Z,27.41
2022-08-10T10:16:40.627Z,27.07
2022-08-10T10:19:26.591Z,27.51
2022-08-10T10:21:59.886Z,27.19
2022-08-10T10:24:34.405Z,27.57
2022-08-10T10:27:04.513Z,27.58
2022-08-10T10:29:57.047Z,27.60
2022-08-10T10:32:36.677Z,27.53
2022-08-10T10:35:09.250Z,27.42
2022-08-10T10:38:01.642Z,27.62
2022-08-10T10:40:27.341Z,27.66
2022-08-10T10:43:01.746Z,27.71
2022-08-10T10:45:32.951Z,27.73
2022-08-10T10:48:03.737Z,27.75
2022-08-10T10:50:35.813Z,27.78
2022-08-10T10:53:06.670Z,27.78
2022-08-10T10:56:13.512Z,27.77
2022-08-10T10:58:29.481Z,27.75
2022-08-10T11:00:59.986Z,27.71
2022-08-10T11:03:55.297Z,27.78
2022-08-10T11:06:39.410Z,27.78
2022-08-10T11:09:12.504Z,27.53
2022-08-10T11:12:03.007Z,27.80
2022-08-10T11:14:38.471Z,27.80
2022-08-10T11:17:10.346Z,27.59
2022-08-10T11:20:01.747Z,27.69
2022-08-10T11:22:36.943Z,27.74
2022-08-10T11:25:09.792Z,27.92
2022-08-10T11:27:43.979Z,27.62
2022-08-10T11:30:13.807Z,27.90
2022-08-10T11:32:49.577Z,27.66
2022-08-10T11:35:21.487Z,27.84
2022-08-10T11:38:30.962Z,27.87
2022-08-10T11:40:45.346Z,27.58
2022-08-10T11:43:21.940Z,27.76
2022-08-10T11:45:55.573Z,27.57
2022-08-10T11:48:53.462Z,27.85
2022-08-10T11:51:20.879Z,27.57
2022-08-10T11:53:51.260Z,27.55
2022-08-10T11:56:25.086Z,27.69
2022-08-10T11:59:16.618Z,27.85
2022-08-10T12:01:45.366Z,27.77
2022-08-10T12:04:13.090Z,27.87
2022-08-10T12:06:55.033Z,27.59
2022-08-10T12:10:10.780Z,27.87
2022-08-10T12:12:11.776Z,27.86
2022-08-10T12:14:44.850Z,27.84
2022-08-10T12:17:16.986Z,27.84
2022-08-10T12:20:01.122Z,27.85
2022-08-10T12:22:32.903Z,27.53
2022-08-10T12:25:02.289Z,27.80
2022-08-10T12:27:32.557Z,27.63
2022-08-10T12:30:04.677Z,27.90
2022-08-10T12:32:34.109Z,27.89
2022-08-10T12:35:04.947Z,27.91
2022-08-10T12:37:34.470Z,27.61
2022-08-10T12:40:33.991Z,27.85
2022-08-10T12:43:12.783Z,27.84
2022-08-10T12:45:52.131Z,27.93
2022-08-10T12:48:23.547Z,27.64
2022-08-10T12:51:00.549Z,27.95
2022-08-10T12:53:37.825Z,27.79
2022-08-10T12:56:06.297Z,27.79
2022-08-10T12:58:57.453Z,27.97
2022-08-10T13:01:25.580Z,27.67
2022-08-10T13:04:20.532Z,28.02
2022-08-10T13:06:51.753Z,27.97
2022-08-10T13:09:22.441Z,28.02
2022-08-10T13:12:37.015Z,28.02
2022-08-10T13:14:42.908Z,28.05
2022-08-10T13:17:11.986Z,28.05
2022-08-10T13:19:55.384Z,28.07
2022-08-10T13:22:24.937Z,28.06
2022-08-10T13:24:55.784Z,28.09
2022-08-10T13:28:01.172Z,28.11
2022-08-10T13:30:13.845Z,28.11
2022-08-10T13:32:42.945Z,28.12
2022-08-10T13:35:11.935Z,28.14
2022-08-10T13:37:43.565Z,28.16
2022-08-10T13:40:12.221Z,28.18
2022-08-10T13:42:40.117Z,28.18
2022-08-10T13:45:10.194Z,27.59
2022-08-10T13:47:49.502Z,28.23
2022-08-10T13:50:34.637Z,28.25
2022-08-10T13:53:11.602Z,28.29
2022-08-10T13:55:48.648Z,28.30
2022-08-10T13:58:27.490Z,28.21
2022-08-10T14:00:55.840Z,28.09
2022-08-10T14:03:23.661Z,28.36
2022-08-10T14:05:53.906Z,28.41
2022-08-10T14:08:24.197Z,28.41
2022-08-10T14:11:08.945Z,28.34
2022-08-10T14:13:43.427Z,28.31
2022-08-10T14:16:11.437Z,28.49
2022-08-10T14:18:39.194Z,28.07
2022-08-10T14:21:08.384Z,28.55
2022-08-10T14:23:40.731Z,28.58
2022-08-10T14:26:09.529Z,28.59
2022-08-10T14:28:40.503Z,28.63
2022-08-10T14:31:10.284Z,28.66
2022-08-10T14:33:37.916Z,28.66
2022-08-10T14:36:19.861Z,28.70
2022-08-10T14:38:52.930Z,28.73
2022-08-10T14:42:02.716Z,28.78
2022-08-10T14:44:13.152Z,28.61
2022-08-10T14:46:44.286Z,28.50
2022-08-10T14:49:26.339Z,28.86
2022-08-10T14:52:00.854Z,28.89
2022-08-10T14:54:30.566Z,28.77
2022-08-10T14:56:58.106Z,28.95
2022-08-10T15:00:22.657Z,28.98
2022-08-10T15:02:40.041Z,28.79
2022-08-10T15:05:09.158Z,29.05
2022-08-10T15:07:37.463Z,29.10
2022-08-10T15:10:09.102Z,29.11
2022-08-10T15:12:38.451Z,29.14
2022-08-10T15:15:08.410Z,29.16
2022-08-10T15:17:37.493Z,29.16
2022-08-10T15:20:13.218Z,29.20
2022-08-10T15:22:41.831Z,29.25
2022-08-10T15:25:18.584Z,29.28
2022-08-10T15:27:54.227Z,29.33
2022-08-10T15:30:30.394Z,29.00
2022-08-10T15:33:21.193Z,29.38
2022-08-10T15:36:23.078Z,29.41
2022-08-10T15:38:56.145Z,29.32
2022-08-10T15:41:58.878Z,29.52
2022-08-10T15:44:25.634Z,29.53
2022-08-10T15:46:57.673Z,29.32
2022-08-10T15:49:27.625Z,29.64
2022-08-10T15:51:58.376Z,29.63
2022-08-10T15:54:33.680Z,29.71
2022-08-10T15:57:04.232Z,29.53
2022-08-10T15:59:32.918Z,29.72
2022-08-10T16:02:13.897Z,29.73
2022-08-10T16:04:48.650Z,29.52
2022-08-10T16:07:19.475Z,29.81
2022-08-10T16:10:24.577Z,29.69
2022-08-10T16:12:41.607Z,29.89
2022-08-10T16:15:12.324Z,29.91
2022-08-10T16:17:54.841Z,29.95
2022-08-10T16:20:27.116Z,29.72
2022-08-10T16:22:56.922Z,29.99
2022-08-10T16:25:24.499Z,29.98
2022-08-10T16:28:23.161Z,29.95
2022-08-10T16:30:53.291Z,30.00
2022-08-10T16:33:54.195Z,29.85
2022-08-10T16:36:17.149Z,29.78
2022-08-10T16:38:45.464Z,30.05
2022-08-10T16:41:52.083Z,30.09
2022-08-10T16:44:02.254Z,30.10
2022-08-10T16:46:29.941Z,30.10
2022-08-10T16:48:57.724Z,30.13
2022-08-10T16:51:25.459Z,30.13
2022-08-10T16:53:53.289Z,30.14
2022-08-10T16:56:24.765Z,30.16
2022-08-10T16:58:54.905Z,30.08
2022-08-10T17:01:25.577Z,30.17
2022-08-10T17:04:07.522Z,30.16
2022-08-10T17:06:39.848Z,30.07
2022-08-10T17:09:08.225Z,29.90
2022-08-10T17:11:36.756Z,30.18
2022-08-10T17:14:05.525Z,30.20
2022-08-10T17:16:36.166Z,29.94
2022-08-10T17:19:05.330Z,30.23
2022-08-10T17:21:50.919Z,30.15
2022-08-10T17:24:21.042Z,30.24
2022-08-10T17:26:48.764Z,30.26
2022-08-10T17:29:59.159Z,30.14
2022-08-10T17:32:09.492Z,30.25
2022-08-10T17:34:38.525Z,30.07
2022-08-10T17:37:07.169Z,30.28
2022-08-10T17:39:38.784Z,30.28
2022-08-10T17:42:09.030Z,30.19
2022-08-10T17:44:36.970Z,29.99
2022-08-10T17:47:10.766Z,30.28
2022-08-10T17:49:39.993Z,30.30
2022-08-10T17:52:09.272Z,30.11
2022-08-10T17:54:39.704Z,30.27
2022-08-10T17:57:09.593Z,30.23
2022-08-10T17:59:37.642Z,30.18
2022-08-10T18:02:09.530Z,30.12
2022-08-10T18:04:42.210Z,29.77
2022-08-10T18:07:10.844Z,29.99
2022-08-10T18:09:40.430Z,29.72
2022-08-10T18:12:18.112Z,29.76
2022-08-10T18:14:48.028Z,29.81
2022-08-10T18:17:19.529Z,29.74
2022-08-10T18:19:48.194Z,29.69
2022-08-10T18:22:15.905Z,29.65
2022-08-10T18:24:44.606Z,29.59
2022-08-10T18:27:12.705Z,29.55
2022-08-10T18:29:41.493Z,29.25
2022-08-10T18:34:30.636Z,28.98
2022-08-10T18:36:58.375Z,29.38
2022-08-10T18:39:28.424Z,29.35
2022-08-10T18:42:00.562Z,29.12
2022-08-10T18:44:35.873Z,29.25
2022-08-10T18:47:05.935Z,29.23
2022-08-10T18:49:41.252Z,29.19
2022-08-10T18:52:10.387Z,29.15
2022-08-10T18:54:44.855Z,29.07
2022-08-10T18:57:17.288Z,28.99
2022-08-10T19:00:07.900Z,29.05
2022-08-10T19:02:51.560Z,28.78
2022-08-10T19:05:32.614Z,28.96
2022-08-10T19:08:29.882Z,28.94
2022-08-10T19:11:00.688Z,28.90
2022-08-10T19:13:33.670Z,28.88
2022-08-10T19:16:08.520Z,28.85
2022-08-10T19:18:39.305Z,28.83
2022-08-10T19:21:14.290Z,28.52
2022-08-10T19:23:47.485Z,28.77
2022-08-10T19:26:41.586Z,28.74
2022-08-10T19:30:04.999Z,28.71
2022-08-10T19:32:05.246Z,28.69
2022-08-10T19:34:39.381Z,28.42
2022-08-10T19:37:15.551Z,28.44
2022-08-10T19:39:52.721Z,28.61
2022-08-10T19:42:21.491Z,28.58
2022-08-10T19:45:02.234Z,28.55
2022-08-10T19:47:33.022Z,28.54
2022-08-10T19:50:02.743Z,28.51
2022-08-10T19:52:35.077Z,28.46
2022-08-10T19:55:15.233Z,28.45
2022-08-10T19:57:47.329Z,28.39
2022-08-10T20:00:22.956Z,28.39
2022-08-10T20:02:56.885Z,28.24
2022-08-10T20:05:30.781Z,28.33
2022-08-10T20:08:04.381Z,28.32
2022-08-10T20:10:36.291Z,28.30
2022-08-10T20:13:09.126Z,28.17
2022-08-10T20:15:41.838Z,28.25
2022-08-10T20:18:14.199Z,28.10
2022-08-10T20:20:42.724Z,28.22
2022-08-10T20:23:15.164Z,28.02
2022-08-10T20:25:45.338Z,28.19
2022-08-10T20:28:18.394Z,28.16
2022-08-10T20:30:47.862Z,28.16
2022-08-10T20:33:18.578Z,28.02
2022-08-10T20:35:50.428Z,27.83
2022-08-10T20:38:27.425Z,28.08
2022-08-10T20:41:02.996Z,27.98
2022-08-10T20:43:48.913Z,27.98
2022-08-10T20:46:21.958Z,28.02
2022-08-10T20:48:52.070Z,28.01
2022-08-10T20:51:22.084Z,27.90
2022-08-10T20:53:52.832Z,27.98
2022-08-10T20:56:25.224Z,27.96
2022-08-10T20:59:09.122Z,27.95
2022-08-10T21:02:07.109Z,27.64
2022-08-10T21:04:42.319Z,27.82
2022-08-10T21:07:59.993Z,27.89
2022-08-10T21:10:39.544Z,27.86
2022-08-10T21:13:16.186Z,27.85
2022-08-10T21:15:55.558Z,27.80
2022-08-10T21:18:31.091Z,27.81
2022-08-10T21:21:09.439Z,27.80
2022-08-10T21:23:41.341Z,27.77
2022-08-10T21:26:11.182Z,27.61
2022-08-10T21:29:13.158Z,27.75
2022-08-10T21:31:55.249Z,27.72
2022-08-10T21:34:59.149Z,27.72
2022-08-10T21:37:46.101Z,27.02
2022-08-10T21:40:35.441Z,27.69
2022-08-10T21:43:32.183Z,27.69
2022-08-10T21:46:33.084Z,27.66
2022-08-10T21:49:23.079Z,27.63
2022-08-10T21:52:16.201Z,27.63
2022-08-10T21:55:03.786Z,27.61
2022-08-10T21:58:00.233Z,27.59
2022-08-10T22:00:46.990Z,27.57
2022-08-10T22:03:40.042Z,27.55
2022-08-10T22:06:25.943Z,27.53
2022-08-10T22:09:15.762Z,27.41
2022-08-10T22:12:02.045Z,27.51
2022-08-10T22:14:52.936Z,27.49
2022-08-10T22:18:00.638Z,27.21
2022-08-10T22:20:45.311Z,27.30
2022-08-10T22:23:53.673Z,27.41
2022-08-10T22:27:00.797Z,27.41
2022-08-10T22:29:52.568Z,27.39
2022-08-10T22:32:44.073Z,27.40
2022-08-10T22:35:47.756Z,27.39
2022-08-10T22:38:38.098Z,27.36
2022-08-10T22:41:27.294Z,27.35
2022-08-10T22:44:17.138Z,27.34
2022-08-10T22:47:02.333Z,27.31
2022-08-10T22:49:30.305Z,27.19
2022-08-10T22:52:02.135Z,27.30
2022-08-10T22:54:51.345Z,27.02
2022-08-10T22:57:36.485Z,27.27
2022-08-10T23:00:14.278Z,27.01
2022-08-10T23:02:43.426Z,27.24
2022-08-10T23:05:14.156Z,26.95
2022-08-10T23:07:47.447Z,27.23
2022-08-10T23:10:16.118Z,27.19
2022-08-10T23:12:49.388Z,27.20
2022-08-10T23:15:38.816Z,27.15
2022-08-10T23:18:25.524Z,27.17
2022-08-10T23:20:54.619Z,27.15
2022-08-10T23:23:24.203Z,27.11
2022-08-10T23:25:57.126Z,27.13
2022-08-10T23:28:38.263Z,27.12
2022-08-10T23:31:10.053Z,27.05
2022-08-10T23:33:38.531Z,27.09
2022-08-10T23:36:33.858Z,27.09
2022-08-10T23:39:23.825Z,27.04
2022-08-10T23:41:43.781Z,27.03
2022-08-10T23:44:21.232Z,26.73
2022-08-10T23:46:49.100Z,27.02
2022-08-10T23:49:16.859Z,26.67
2022-08-10T23:51:54.475Z,26.99
2022-08-10T23:54:23.856Z,26.97
2022-08-10T23:56:52.512Z,26.96
2022-08-10T23:59:21.370Z,26.95
